Time;durP1;ratioP1;P1;durP2;ratioP2;P2;SDS_P1;SDS_P2;PMS_P1;PMS_P2;Temp;Humidity;BMP_temperature;BMP_pressure;BME280_temperature;BME280_humidity;BME280_pressure;Samples;Min_cycle;Max_cycle;Signal;HPM_P1;HPM_P2
2023/02/19 00:01:38;;;;;;;28.42;13.85;;;9.70;99.90;;;;;;4861359;29;20081;-94
2023/02/19 00:04:15;;;;;;;25.58;13.60;;;9.70;99.90;;;;;;4861762;29;20050;-93
2023/02/19 00:06:41;;;;;;;25.00;13.25;;;9.70;99.90;;;;;;4857085;29;20052;-92
2023/02/19 00:09:08;;;;;;;23.90;12.60;;;9.70;99.90;;;;;;4861437;29;20046;-93
2023/02/19 00:11:34;;;;;;;24.05;12.45;;;9.70;99.90;;;;;;4862138;29;20053;-93
2023/02/19 00:14:01;;;;;;;19.45;11.88;;;9.70;99.90;;;;;;4860629;29;20129;-91
2023/02/19 00:16:35;;;;;;;20.52;12.48;;;9.70;99.90;;;;;;4860328;29;20049;-92
2023/02/19 00:19:04;;;;;;;20.13;12.30;;;9.70;99.90;;;;;;4862448;29;20042;-91
2023/02/19 00:21:29;;;;;;;22.75;12.60;;;9.70;99.90;;;;;;4860307;29;20045;-92
2023/02/19 00:23:59;;;;;;;20.40;12.18;;;9.70;99.90;;;;;;4861941;29;20399;-93
2023/02/19 00:26:25;;;;;;;21.35;12.93;;;9.70;99.90;;;;;;4859696;29;20517;-93
2023/02/19 00:28:53;;;;;;;19.02;12.82;;;9.70;99.90;;;;;;4860869;29;20049;-93
2023/02/19 00:31:27;;;;;;;21.17;12.75;;;9.70;99.90;;;;;;4860945;29;20447;-92
2023/02/19 00:33:55;;;;;;;20.38;13.07;;;9.70;99.90;;;;;;4860338;29;20478;-92
2023/02/19 00:36:22;;;;;;;24.23;13.82;;;9.70;99.90;;;;;;4861415;29;20045;-91
2023/02/19 00:38:48;;;;;;;20.33;12.27;;;9.70;99.90;;;;;;4860301;29;20045;-91
2023/02/19 00:41:18;;;;;;;26.83;14.23;;;9.70;99.90;;;;;;4860130;29;20049;-92
2023/02/19 00:43:55;;;;;;;25.45;15.00;;;9.70;99.90;;;;;;4860609;29;20053;-92
2023/02/19 00:46:33;;;;;;;21.23;13.68;;;9.70;99.90;;;;;;4861780;29;20041;-91
2023/02/19 00:48:59;;;;;;;24.77;14.63;;;9.70;99.90;;;;;;4859793;29;20136;-91
2023/02/19 00:51:30;;;;;;;25.98;14.40;;;9.70;99.90;;;;;;4860384;29;20041;-91
2023/02/19 00:53:56;;;;;;;23.90;13.98;;;9.70;99.90;;;;;;4861327;29;20060;-92
2023/02/19 00:56:22;;;;;;;25.98;14.15;;;9.70;99.90;;;;;;4859493;29;20132;-91
2023/02/19 00:58:48;;;;;;;28.40;14.52;;;9.70;99.90;;;;;;4859737;29;20450;-91
2023/02/19 01:01:14;;;;;;;24.30;13.27;;;9.70;99.90;;;;;;4859519;29;20045;-91
2023/02/19 01:03:40;;;;;;;30.88;13.32;;;9.70;99.90;;;;;;4861427;29;20049;-91
2023/02/19 01:06:08;;;;;;;22.48;13.00;;;9.70;99.90;;;;;;4861296;29;20050;-91
2023/02/19 01:08:34;;;;;;;23.98;12.40;;;9.70;99.90;;;;;;4859543;29;20062;-92
2023/02/19 01:11:01;;;;;;;21.85;11.80;;;9.70;99.90;;;;;;4860325;29;20057;-92
2023/02/19 01:13:27;;;;;;;21.15;10.90;;;9.70;99.90;;;;;;4861134;29;20101;-93
2023/02/19 01:15:53;;;;;;;23.75;11.55;;;9.70;99.90;;;;;;4861094;29;20481;-92
2023/02/19 01:18:19;;;;;;;17.75;10.85;;;9.60;99.90;;;;;;4861095;29;20084;-92
2023/02/19 01:20:45;;;;;;;25.27;10.77;;;9.60;99.90;;;;;;4861422;29;20077;-93
2023/02/19 01:23:12;;;;;;;23.65;10.63;;;9.60;99.90;;;;;;4859865;29;20042;-93
2023/02/19 01:25:39;;;;;;;17.77;9.20;;;9.60;99.90;;;;;;4861388;29;20498;-91
2023/02/19 01:28:05;;;;;;;20.92;9.20;;;9.60;99.90;;;;;;4860487;29;20069;-93
2023/02/19 01:30:35;;;;;;;23.20;9.07;;;9.60;99.90;;;;;;4860186;29;20152;-93
2023/02/19 01:33:02;;;;;;;23.73;10.10;;;9.60;99.90;;;;;;4859816;29;20483;-88
2023/02/19 01:35:28;;;;;;;21.83;9.93;;;9.60;99.90;;;;;;4857598;29;20045;-88
2023/02/19 01:37:53;;;;;;;20.80;9.43;;;9.60;99.90;;;;;;4857984;29;20050;-89
2023/02/19 01:40:19;;;;;;;17.35;8.48;;;9.60;99.90;;;;;;4861739;29;20518;-91
2023/02/19 01:42:45;;;;;;;19.60;8.75;;;9.60;99.90;;;;;;4864346;29;20101;-90
2023/02/19 01:45:19;;;;;;;16.83;8.23;;;9.60;99.90;;;;;;4862597;29;20037;-89
2023/02/19 01:47:48;;;;;;;20.40;9.10;;;9.60;99.90;;;;;;4864022;29;20081;-90
2023/02/19 01:50:14;;;;;;;19.20;8.45;;;9.50;99.90;;;;;;4863648;29;20409;-89
2023/02/19 01:52:40;;;;;;;20.10;9.65;;;9.50;99.90;;;;;;4863485;29;20193;-90
2023/02/19 01:55:09;;;;;;;15.93;9.45;;;9.50;99.90;;;;;;4863453;29;20034;-90
2023/02/19 01:57:40;;;;;;;18.45;8.23;;;9.50;99.90;;;;;;4864067;29;20048;-90
2023/02/19 02:00:10;;;;;;;19.33;8.65;;;9.50;99.90;;;;;;4862219;29;20057;-90
2023/02/19 02:02:38;;;;;;;18.90;8.18;;;9.50;99.90;;;;;;4862434;29;20483;-89
2023/02/19 02:05:16;;;;;;;17.42;8.23;;;9.50;99.90;;;;;;4862274;29;20124;-89
2023/02/19 02:10:26;;;;;;;18.10;7.13;;;9.50;99.90;;;;;;4863378;29;20053;-90
2023/02/19 02:12:56;;;;;;;18.85;7.03;;;9.50;99.90;;;;;;4861579;29;20049;-89
2023/02/19 02:15:25;;;;;;;13.85;6.65;;;9.40;99.90;;;;;;4861192;29;20053;-89
2023/02/19 02:17:58;;;;;;;16.25;6.18;;;9.40;99.90;;;;;;4858969;29;20118;-89
2023/02/19 02:20:44;;;;;;;16.75;5.90;;;9.40;99.90;;;;;;4858758;29;20053;-89
2023/02/19 02:23:13;;;;;;;14.98;6.40;;;9.40;99.90;;;;;;4861739;29;20061;-89
2023/02/19 02:26:17;;;;;;;15.38;5.75;;;9.40;99.90;;;;;;4860947;29;20364;-90
2023/02/19 02:29:07;;;;;;;12.93;6.85;;;9.40;99.90;;;;;;4861606;29;20550;-89
2023/02/19 02:31:52;;;;;;;15.00;5.70;;;9.40;99.90;;;;;;4861775;29;20042;-88
2023/02/19 02:34:23;;;;;;;15.00;5.60;;;9.40;99.90;;;;;;4860589;29;20045;-89
2023/02/19 02:36:53;;;;;;;14.85;6.80;;;9.40;99.90;;;;;;4862039;29;20486;-89
2023/02/19 02:39:22;;;;;;;17.40;6.97;;;9.30;99.90;;;;;;4861069;29;20132;-89
2023/02/19 02:45:33;;;;;;;17.85;7.43;;;9.30;99.90;;;;;;4861519;29;20088;-89
2023/02/19 02:47:41;;;;;;;15.57;7.60;;;9.30;99.90;;;;;;4861255;29;20163;-89
2023/02/19 02:50:09;;;;;;;18.35;7.10;;;9.30;99.90;;;;;;4860424;29;20045;-89
2023/02/19 02:55:28;;;;;;;16.60;7.13;;;9.30;99.90;;;;;;4860567;29;20125;-89
2023/02/19 02:57:54;;;;;;;18.88;7.80;;;9.30;99.90;;;;;;4862507;29;20045;-89
2023/02/19 03:00:20;;;;;;;17.27;7.93;;;9.30;99.90;;;;;;4862616;29;20389;-91
2023/02/19 03:02:46;;;;;;;19.70;8.02;;;9.30;99.90;;;;;;4862609;29;20058;-91
2023/02/19 03:08:31;;;;;;;15.32;6.82;;;9.30;99.90;;;;;;4860536;29;20732;-87
2023/02/19 03:19:17;;;;;;;13.98;6.72;;;9.20;99.90;;;;;;4855633;29;20060;-88
2023/02/19 03:19:20;;;;;;;12.82;6.38;;;9.20;99.90;;;;;;4856183;29;20094;-88
2023/02/19 03:21:53;;;;;;;14.88;6.70;;;9.20;99.90;;;;;;4862434;29;20061;-87
2023/02/19 03:27:11;;;;;;;12.27;6.43;;;9.20;99.90;;;;;;4856215;29;20045;-87
2023/02/19 03:29:38;;;;;;;14.60;6.40;;;9.30;99.90;;;;;;4861176;29;20106;-87
2023/02/19 03:32:10;;;;;;;10.77;5.80;;;9.30;99.90;;;;;;4861882;29;20128;-88
2023/02/19 03:34:51;;;;;;;12.25;5.78;;;9.30;99.90;;;;;;4861909;29;20072;-87
2023/02/19 03:37:31;;;;;;;11.25;5.70;;;9.20;99.90;;;;;;4860135;29;20049;-88
2023/02/19 03:39:57;;;;;;;9.95;5.72;;;9.20;99.90;;;;;;4859819;29;20097;-87
2023/02/19 03:42:33;;;;;;;11.77;5.90;;;9.20;99.90;;;;;;4860763;29;20068;-87
2023/02/19 03:45:22;;;;;;;9.13;4.53;;;9.20;99.90;;;;;;4860552;29;20046;-87
2023/02/19 03:48:20;;;;;;;8.40;4.35;;;9.20;99.90;;;;;;4859390;29;20451;-88
2023/02/19 03:51:00;;;;;;;8.88;5.40;;;9.20;99.90;;;;;;4859003;29;20097;-87
2023/02/19 03:53:40;;;;;;;9.38;5.30;;;9.20;99.90;;;;;;4859828;29;20052;-87
2023/02/19 03:56:15;;;;;;;11.02;5.28;;;9.20;99.90;;;;;;4861217;29;20038;-87
2023/02/19 03:59:00;;;;;;;10.18;5.00;;;9.20;99.90;;;;;;4859345;29;20113;-87
2023/02/19 04:01:31;;;;;;;11.02;5.13;;;9.20;99.90;;;;;;4846320;29;20518;-87
2023/02/19 04:04:11;;;;;;;9.80;4.75;;;9.20;99.90;;;;;;4861123;29;20052;-87
2023/02/19 04:06:40;;;;;;;11.00;4.90;;;9.20;99.90;;;;;;4858999;29;20072;-86
2023/02/19 04:09:09;;;;;;;11.23;4.80;;;9.10;99.90;;;;;;4859420;29;20490;-86
2023/02/19 04:11:36;;;;;;;7.15;4.22;;;9.10;99.90;;;;;;4859237;29;20085;-87
2023/02/19 04:14:06;;;;;;;8.48;4.30;;;9.10;99.90;;;;;;4861386;29;20041;-87
2023/02/19 04:16:35;;;;;;;8.90;4.60;;;9.10;99.90;;;;;;4858928;29;20053;-87
2023/02/19 04:19:11;;;;;;;9.73;4.63;;;9.10;99.90;;;;;;4849045;29;20116;-88
2023/02/19 04:21:38;;;;;;;11.30;4.28;;;9.10;99.90;;;;;;4841326;29;20086;-88
2023/02/19 04:24:10;;;;;;;8.20;3.63;;;9.10;99.90;;;;;;4845045;29;20537;-88
2023/02/19 04:26:36;;;;;;;8.15;4.10;;;9.10;99.90;;;;;;4858234;29;20057;-87
2023/02/19 04:29:02;;;;;;;6.70;3.90;;;9.00;99.90;;;;;;4859631;29;20043;-88
2023/02/19 04:31:29;;;;;;;6.75;3.70;;;9.00;99.90;;;;;;4859121;29;20049;-87
2023/02/19 04:33:55;;;;;;;7.78;4.32;;;9.00;99.90;;;;;;4858403;29;20045;-88
2023/02/19 04:36:21;;;;;;;9.48;3.90;;;9.00;99.90;;;;;;4858553;29;20041;-88
2023/02/19 04:38:46;;;;;;;6.50;3.35;;;9.00;99.90;;;;;;4859448;29;20145;-88
2023/02/19 04:41:12;;;;;;;6.85;4.05;;;8.90;99.90;;;;;;4859005;29;20140;-88
2023/02/19 04:43:37;;;;;;;8.18;3.83;;;8.90;99.90;;;;;;4859738;29;20052;-88
2023/02/19 04:46:04;;;;;;;5.55;2.92;;;8.90;99.90;;;;;;4859228;29;20543;-87
2023/02/19 04:48:30;;;;;;;5.40;3.17;;;8.90;99.90;;;;;;4859346;29;20192;-88
2023/02/19 04:50:56;;;;;;;7.88;3.60;;;8.90;99.90;;;;;;4860829;29;20092;-88
2023/02/19 04:53:21;;;;;;;10.15;3.83;;;8.80;99.90;;;;;;4860299;29;20038;-87
2023/02/19 04:55:47;;;;;;;6.55;3.38;;;8.80;99.90;;;;;;4859074;29;20049;-88
2023/02/19 04:58:13;;;;;;;9.40;3.10;;;8.80;99.90;;;;;;4859077;29;20459;-88
2023/02/19 05:00:39;;;;;;;9.48;3.70;;;8.80;99.90;;;;;;4857978;29;20490;-87
2023/02/19 05:03:04;;;;;;;6.43;3.13;;;8.70;99.90;;;;;;4860784;29;20052;-88
2023/02/19 05:05:30;;;;;;;7.18;3.58;;;8.70;99.90;;;;;;4858630;29;20460;-88
2023/02/19 05:07:56;;;;;;;7.28;3.30;;;8.70;99.90;;;;;;4858149;29;20393;-88
2023/02/19 05:10:21;;;;;;;7.72;3.13;;;8.70;99.90;;;;;;4858230;29;20041;-88
2023/02/19 05:12:47;;;;;;;6.20;3.28;;;8.70;99.90;;;;;;4861414;29;20450;-88
2023/02/19 05:15:12;;;;;;;7.00;3.25;;;8.60;99.90;;;;;;4863091;29;20137;-87
2023/02/19 05:17:38;;;;;;;7.03;3.42;;;8.60;99.90;;;;;;4864010;29;20494;-88
2023/02/19 05:20:04;;;;;;;6.22;3.05;;;8.60;99.90;;;;;;4862540;29;20084;-88
2023/02/19 05:22:30;;;;;;;6.57;3.05;;;8.60;99.90;;;;;;4861805;29;20053;-88
2023/02/19 05:24:55;;;;;;;6.55;3.10;;;8.60;99.90;;;;;;4863141;29;20045;-88
2023/02/19 05:27:21;;;;;;;5.25;2.90;;;8.70;99.90;;;;;;4863143;29;20181;-88
2023/02/19 05:29:46;;;;;;;6.68;3.08;;;8.60;99.90;;;;;;4862870;29;20042;-88
2023/02/19 05:32:12;;;;;;;7.07;3.05;;;8.60;99.90;;;;;;4861844;29;20050;-87
2023/02/19 05:34:37;;;;;;;6.28;3.15;;;8.60;99.90;;;;;;4862802;29;20375;-87
2023/02/19 05:37:03;;;;;;;6.47;2.80;;;8.60;99.90;;;;;;4863095;29;20045;-87
2023/02/19 05:39:29;;;;;;;6.95;3.17;;;8.60;99.90;;;;;;4862337;29;20046;-88
2023/02/19 05:41:54;;;;;;;6.43;3.17;;;8.60;99.90;;;;;;4862547;29;20049;-88
2023/02/19 05:44:20;;;;;;;5.13;2.97;;;8.60;99.90;;;;;;4860719;29;20046;-88
2023/02/19 05:46:45;;;;;;;8.63;3.15;;;8.60;99.90;;;;;;4862599;29;20046;-90
2023/02/19 05:49:11;;;;;;;7.55;3.00;;;8.60;99.90;;;;;;4858240;29;20116;-87
2023/02/19 05:51:36;;;;;;;5.53;3.10;;;8.60;99.90;;;;;;4862504;29;20053;-88
2023/02/19 05:54:02;;;;;;;8.55;3.33;;;8.50;99.90;;;;;;4863709;29;20463;-88
2023/02/19 05:56:42;;;;;;;5.53;3.08;;;8.50;99.90;;;;;;4863103;29;20046;-89
2023/02/19 05:59:50;;;;;;;5.40;3.20;;;8.50;99.90;;;;;;4869403;23;20092;-90
2023/02/19 06:02:38;;;;;;;5.13;2.90;;;8.40;99.90;;;;;;4862315;29;20085;-89
2023/02/19 06:05:19;;;;;;;5.72;3.60;;;8.40;99.90;;;;;;4862824;29;20525;-90
2023/02/19 06:07:49;;;;;;;6.85;3.20;;;8.40;99.90;;;;;;4863602;29;20038;-92
2023/02/19 06:10:18;;;;;;;6.00;3.58;;;8.40;99.90;;;;;;4862317;29;20505;-91
2023/02/19 06:12:53;;;;;;;5.60;3.50;;;8.30;99.90;;;;;;4860727;29;20049;-89
2023/02/19 06:15:20;;;;;;;6.28;3.25;;;8.30;99.90;;;;;;4863911;29;20041;-89
2023/02/19 06:17:46;;;;;;;5.97;3.38;;;8.30;99.90;;;;;;4862307;29;20063;-86
2023/02/19 06:20:11;;;;;;;5.95;3.85;;;8.30;99.90;;;;;;4860666;29;20046;-87
2023/02/19 06:22:37;;;;;;;12.82;3.90;;;8.30;99.90;;;;;;4861506;29;20050;-87
2023/02/19 06:25:03;;;;;;;6.95;3.72;;;8.30;99.90;;;;;;4861908;29;20056;-87
2023/02/19 06:27:28;;;;;;;8.18;3.80;;;8.30;99.90;;;;;;4861075;29;20046;-87
2023/02/19 06:29:54;;;;;;;6.95;3.60;;;8.30;99.90;;;;;;4859544;29;20052;-87
2023/02/19 06:32:19;;;;;;;9.30;3.70;;;8.30;99.90;;;;;;4842671;29;20037;-87
2023/02/19 06:34:45;;;;;;;7.95;3.38;;;8.20;99.90;;;;;;4848123;29;20105;-88
2023/02/19 06:37:11;;;;;;;6.03;3.25;;;8.20;99.90;;;;;;4862532;29;20052;-88
2023/02/19 06:39:36;;;;;;;11.35;3.67;;;8.20;99.90;;;;;;4861458;29;20105;-90
2023/02/19 06:42:02;;;;;;;7.63;3.38;;;8.20;99.90;;;;;;4862464;29;20137;-89
2023/02/19 06:44:28;;;;;;;8.27;3.05;;;8.20;99.90;;;;;;4861085;29;20077;-91
2023/02/19 06:46:54;;;;;;;5.22;3.30;;;8.10;99.90;;;;;;4855572;29;20098;-88
2023/02/19 06:49:20;;;;;;;9.55;3.30;;;8.20;99.90;;;;;;4856532;29;20124;-89
2023/02/19 06:51:46;;;;;;;8.13;3.38;;;8.20;99.90;;;;;;4865771;29;20141;-89
2023/02/19 06:54:11;;;;;;;6.30;3.05;;;8.10;99.90;;;;;;4841535;29;20129;-88
2023/02/19 06:56:39;;;;;;;4.90;3.10;;;8.10;99.90;;;;;;4852592;29;20049;-88
2023/02/19 06:59:13;;;;;;;5.32;3.05;;;8.10;99.90;;;;;;4858525;29;20124;-87
2023/02/19 07:01:39;;;;;;;5.97;2.90;;;8.00;99.90;;;;;;4859911;29;20506;-88
2023/02/19 07:04:06;;;;;;;6.80;3.63;;;8.00;99.90;;;;;;4859609;29;20042;-88
2023/02/19 07:06:33;;;;;;;5.95;3.33;;;8.00;99.90;;;;;;4847195;29;20053;-88
2023/02/19 07:08:59;;;;;;;5.65;3.50;;;8.00;99.90;;;;;;4846790;29;20046;-89
2023/02/19 07:11:27;;;;;;;5.65;2.85;;;8.00;99.90;;;;;;4854126;29;20513;-88
2023/02/19 07:13:58;;;;;;;8.02;3.25;;;7.90;99.90;;;;;;4860751;29;20451;-88
2023/02/19 07:16:24;;;;;;;6.68;3.20;;;7.90;99.90;;;;;;4861549;29;20050;-88
2023/02/19 07:18:50;;;;;;;5.63;3.00;;;7.90;99.90;;;;;;4861001;29;20048;-88
2023/02/19 07:21:17;;;;;;;6.53;3.10;;;7.90;99.90;;;;;;4856796;29;20042;-88
2023/02/19 07:23:44;;;;;;;5.22;3.15;;;7.90;99.90;;;;;;4863093;29;20089;-90
2023/02/19 07:26:12;;;;;;;6.95;3.60;;;7.90;99.90;;;;;;4860700;29;20049;-87
2023/02/19 07:28:39;;;;;;;6.53;3.70;;;7.90;99.90;;;;;;4860030;29;20217;-88
2023/02/19 07:31:05;;;;;;;6.28;3.65;;;7.90;99.90;;;;;;4860353;29;20057;-88
2023/02/19 07:33:31;;;;;;;6.47;3.53;;;7.90;99.90;;;;;;4872281;29;20053;-88
2023/02/19 07:35:56;;;;;;;6.43;3.55;;;7.80;99.90;;;;;;4860288;29;20041;-88
2023/02/19 07:38:24;;;;;;;8.73;3.85;;;7.80;99.90;;;;;;4857386;29;20041;-89
2023/02/19 07:40:58;;;;;;;6.38;3.30;;;7.80;99.90;;;;;;4859268;29;20053;-88
2023/02/19 07:43:25;;;;;;;6.25;3.58;;;7.80;99.90;;;;;;4856757;29;20053;-89
2023/02/19 07:45:51;;;;;;;8.95;3.70;;;7.90;99.90;;;;;;4861845;29;20045;-88
2023/02/19 07:48:17;;;;;;;6.18;3.40;;;7.80;99.90;;;;;;4861966;29;20041;-88
2023/02/19 07:50:54;;;;;;;10.38;4.22;;;7.80;99.90;;;;;;4859823;29;20060;-90
2023/02/19 07:53:21;;;;;;;8.13;3.90;;;7.90;99.90;;;;;;4860785;29;20049;-93
2023/02/19 07:55:47;;;;;;;7.55;4.07;;;7.80;99.90;;;;;;4861007;29;20037;-90
2023/02/19 07:58:13;;;;;;;7.95;3.95;;;7.80;99.90;;;;;;4861206;29;20065;-89
2023/02/19 08:00:38;;;;;;;6.40;3.47;;;7.80;99.90;;;;;;4860215;29;20038;-90
2023/02/19 08:03:04;;;;;;;7.75;3.80;;;7.80;99.90;;;;;;4861992;29;20049;-89
2023/02/19 08:05:33;;;;;;;7.75;4.03;;;7.80;99.90;;;;;;4860228;29;20084;-89
2023/02/19 08:07:59;;;;;;;8.13;3.55;;;7.80;99.90;;;;;;4851190;29;20050;-89
2023/02/19 08:13:18;;;;;;;5.90;3.67;;;7.80;99.90;;;;;;4851348;29;20053;-90
2023/02/19 08:15:49;;;;;;;7.10;3.70;;;7.80;99.90;;;;;;4861341;29;20505;-90
2023/02/19 08:18:16;;;;;;;5.57;3.47;;;7.80;99.90;;;;;;4860124;29;20494;-89
2023/02/19 08:20:43;;;;;;;8.07;3.78;;;7.80;99.90;;;;;;4861631;29;20502;-93
2023/02/19 08:23:09;;;;;;;7.30;3.78;;;7.80;99.90;;;;;;4861506;29;20060;-89
2023/02/19 08:25:35;;;;;;;11.15;3.88;;;7.80;99.90;;;;;;4859745;29;20406;-91
2023/02/19 08:28:01;;;;;;;7.85;3.58;;;7.80;99.90;;;;;;4860715;29;20132;-89
2023/02/19 08:30:28;;;;;;;8.10;3.90;;;7.90;99.90;;;;;;4859104;29;20041;-89
2023/02/19 08:32:54;;;;;;;7.47;3.60;;;7.90;99.90;;;;;;4860503;29;20054;-90
2023/02/19 08:35:19;;;;;;;8.32;3.50;;;7.90;99.90;;;;;;4858782;29;20110;-89
2023/02/19 08:37:45;;;;;;;7.15;3.70;;;7.90;99.90;;;;;;4857245;29;20069;-90
2023/02/19 08:40:11;;;;;;;8.75;4.00;;;7.90;99.90;;;;;;4858710;29;20045;-89
2023/02/19 08:42:37;;;;;;;6.05;3.10;;;7.90;99.90;;;;;;4861681;29;20041;-90
2023/02/19 08:45:03;;;;;;;8.57;3.70;;;8.00;99.90;;;;;;4861263;29;20044;-91
2023/02/19 08:47:29;;;;;;;10.32;3.78;;;8.00;99.90;;;;;;4858615;29;20050;-90
2023/02/19 08:49:54;;;;;;;8.25;3.65;;;8.10;99.90;;;;;;4859758;29;20181;-91
2023/02/19 08:52:20;;;;;;;7.88;3.30;;;8.10;99.90;;;;;;4859545;29;20052;-90
2023/02/19 08:54:45;;;;;;;7.05;3.10;;;8.10;99.90;;;;;;4859343;29;20045;-89
2023/02/19 08:57:11;;;;;;;6.65;3.25;;;8.10;99.90;;;;;;4859644;29;20046;-90
2023/02/19 08:59:37;;;;;;;6.60;3.20;;;8.20;99.90;;;;;;4860054;23;20062;-90
2023/02/19 09:02:02;;;;;;;6.22;3.30;;;8.20;99.90;;;;;;4825219;29;20054;-90
2023/02/19 09:04:28;;;;;;;9.30;3.42;;;8.30;99.90;;;;;;4832919;29;20428;-90
2023/02/19 09:06:59;;;;;;;7.47;3.15;;;8.30;99.90;;;;;;4825894;29;20048;-91
2023/02/19 09:09:24;;;;;;;6.10;2.80;;;8.30;99.90;;;;;;4817099;29;20520;-89
2023/02/19 09:11:50;;;;;;;6.20;3.08;;;8.40;99.90;;;;;;4823068;29;20130;-91
2023/02/19 09:14:15;;;;;;;6.90;3.10;;;8.40;99.90;;;;;;4807506;29;20058;-91
2023/02/19 09:16:44;;;;;;;6.43;2.72;;;8.40;99.90;;;;;;4824359;29;20085;-90
2023/02/19 09:19:13;;;;;;;9.10;3.25;;;8.50;99.90;;;;;;4804870;29;20051;-90
2023/02/19 09:21:38;;;;;;;3.80;1.40;;;8.50;99.90;;;;;;4800159;29;20107;-91
2023/02/19 09:24:04;;;;;;;6.78;2.80;;;8.50;99.90;;;;;;4824432;29;20046;-90
2023/02/19 09:26:29;;;;;;;8.10;3.15;;;8.50;99.90;;;;;;4824368;29;20503;-91
2023/02/19 09:28:55;;;;;;;5.05;2.90;;;8.50;99.90;;;;;;4806537;29;20099;-89
2023/02/19 09:31:21;;;;;;;5.40;3.10;;;8.60;99.90;;;;;;4822704;29;20074;-89
2023/02/19 09:33:47;;;;;;;7.32;3.30;;;8.60;99.90;;;;;;4822778;29;20099;-90
2023/02/19 09:36:14;;;;;;;5.70;3.22;;;8.60;99.90;;;;;;4823289;29;20069;-96
2023/02/19 09:38:40;;;;;;;6.07;3.22;;;8.70;99.90;;;;;;4808680;29;20507;-92
2023/02/19 09:41:27;;;;;;;8.32;3.13;;;8.80;99.90;;;;;;4809084;29;20111;-92
2023/02/19 09:43:53;;;;;;;11.00;2.85;;;8.80;99.90;;;;;;4808705;29;20055;-93
2023/02/19 09:46:30;;;;;;;9.10;2.90;;;8.90;99.90;;;;;;4838749;29;20106;-94
2023/02/19 09:49:03;;;;;;;3.92;1.83;;;8.90;99.90;;;;;;4824653;29;20043;-92
2023/02/19 09:51:31;;;;;;;8.30;2.70;;;9.00;99.90;;;;;;4808491;29;20513;-92
2023/02/19 09:53:57;;;;;;;7.80;2.42;;;9.00;99.90;;;;;;4838777;29;20050;-92
2023/02/19 09:56:26;;;;;;;3.38;1.42;;;9.10;99.90;;;;;;4822521;29;20058;-92
2023/02/19 09:58:58;;;;;;;4.60;2.10;;;9.10;99.90;;;;;;4824174;29;20062;-93
2023/02/19 10:01:27;;;;;;;7.53;2.28;;;9.10;99.90;;;;;;4827246;29;20051;-92
2023/02/19 10:03:53;;;;;;;8.13;2.75;;;9.10;99.90;;;;;;4826832;29;20047;-94
2023/02/19 10:06:22;;;;;;;8.55;2.58;;;9.20;99.90;;;;;;4808064;29;20047;-93
2023/02/19 10:08:51;;;;;;;9.98;2.55;;;9.20;99.90;;;;;;4803271;29;20057;-92
2023/02/19 10:11:17;;;;;;;7.75;2.17;;;9.30;99.90;;;;;;4826701;29;20050;-93
2023/02/19 10:14:02;;;;;;;5.10;2.00;;;9.40;99.90;;;;;;4827717;29;20056;-94
2023/02/19 10:16:28;;;;;;;4.85;2.05;;;9.40;99.90;;;;;;4826318;29;20046;-92
2023/02/19 10:18:55;;;;;;;6.82;2.40;;;9.50;99.90;;;;;;4826695;29;20099;-93
2023/02/19 10:21:26;;;;;;;8.27;2.20;;;9.50;99.90;;;;;;4827323;29;20138;-94
2023/02/19 10:23:59;;;;;;;5.90;2.10;;;9.50;99.90;;;;;;4827757;29;20407;-92
2023/02/19 10:26:24;;;;;;;8.02;2.08;;;9.60;99.90;;;;;;4840426;29;20050;-91
2023/02/19 10:28:50;;;;;;;3.28;1.20;;;9.60;99.90;;;;;;4827174;29;20038;-92
2023/02/19 10:31:18;;;;;;;3.60;0.98;;;9.60;99.90;;;;;;4826495;29;20050;-94
2023/02/19 10:33:53;;;;;;;6.30;1.38;;;9.60;99.90;;;;;;4814205;29;20047;-95
2023/02/19 10:36:32;;;;;;;3.00;1.08;;;9.60;99.90;;;;;;4811704;29;20124;-91
2023/02/19 10:39:00;;;;;;;7.38;1.60;;;9.60;99.90;;;;;;4812411;29;20046;-95
2023/02/19 10:41:26;;;;;;;4.18;1.52;;;9.60;99.90;;;;;;4812899;29;20084;-95
2023/02/19 10:44:03;;;;;;;5.70;1.60;;;9.60;99.90;;;;;;4827288;29;20403;-92
2023/02/19 10:46:33;;;;;;;5.35;1.58;;;9.70;99.90;;;;;;4827831;29;20050;-93
2023/02/19 10:49:18;;;;;;;6.13;1.50;;;9.70;99.90;;;;;;4811767;29;20050;-92
2023/02/19 10:51:44;;;;;;;5.47;1.10;;;9.70;99.90;;;;;;4827435;29;20038;-92
2023/02/19 10:54:34;;;;;;;4.45;1.10;;;9.70;99.90;;;;;;4828123;29;20057;-94
2023/02/19 10:57:17;;;;;;;2.40;1.20;;;9.80;99.90;;;;;;4810819;29;20058;-92
2023/02/19 10:59:56;;;;;;;;;;;9.80;99.90;;;;;;4826414;29;20120;-96
2023/02/19 11:02:22;;;;;;;2.88;1.20;;;9.80;99.90;;;;;;4810757;29;19975;-95
2023/02/19 11:05:17;;;;;;;3.55;1.20;;;9.90;99.90;;;;;;4826547;29;20078;-95
2023/02/19 11:07:54;;;;;;;4.20;1.30;;;9.90;99.90;;;;;;4795450;29;20061;-94
2023/02/19 11:10:33;;;;;;;4.07;1.20;;;10.00;99.90;;;;;;4808430;29;20446;-92
2023/02/19 11:13:02;;;;;;;6.47;2.05;;;10.00;99.90;;;;;;4825263;29;20046;-90
2023/02/19 11:15:31;;;;;;;7.55;3.00;;;10.10;99.90;;;;;;4825133;29;20039;-91
2023/02/19 11:18:16;;;;;;;5.25;1.85;;;10.10;99.90;;;;;;4822316;29;20496;-95
2023/02/19 11:20:54;;;;;;;2.58;1.17;;;10.10;99.90;;;;;;4827696;29;20507;-92
2023/02/19 11:23:44;;;;;;;6.03;2.60;;;10.10;99.90;;;;;;4827003;29;20053;-92
2023/02/19 11:26:24;;;;;;;6.28;2.90;;;10.10;99.90;;;;;;4833074;29;20403;-92
2023/02/19 11:28:58;;;;;;;9.10;3.33;;;10.10;99.90;;;;;;4834080;29;20050;-90
2023/02/19 11:31:31;;;;;;;7.05;2.33;;;10.10;99.90;;;;;;4836178;29;20062;-92
2023/02/19 11:33:58;;;;;;;;;;;10.10;99.90;;;;;;4841808;29;20033;-92
2023/02/19 11:36:27;;;;;;;7.93;2.70;;;10.10;99.90;;;;;;4834387;29;19925;-92
2023/02/19 11:38:54;;;;;;;7.15;2.45;;;10.10;99.90;;;;;;4810633;29;20053;-94
2023/02/19 11:41:40;;;;;;;5.75;1.55;;;10.20;99.90;;;;;;4829479;29;20055;-96
2023/02/19 11:44:36;;;;;;;6.57;2.60;;;10.30;99.90;;;;;;4836099;29;20042;-95
2023/02/19 11:47:26;;;;;;;5.88;2.10;;;10.30;99.90;;;;;;4813585;29;20050;-95
2023/02/19 11:50:10;;;;;;;5.40;1.60;;;10.30;99.90;;;;;;4812023;29;20391;-92
2023/02/19 11:53:03;;;;;;;4.88;1.40;;;10.40;99.90;;;;;;4842486;29;20069;-94
2023/02/19 11:55:29;;;;;;;5.40;2.08;;;10.50;99.90;;;;;;4810873;29;20077;-92
2023/02/19 11:58:37;;;;;;;6.18;1.40;;;10.50;99.90;;;;;;4825707;29;20086;-91
2023/02/19 12:01:14;;;;;;;5.40;1.90;;;10.50;99.90;;;;;;4819306;29;20058;-93
2023/02/19 12:03:51;;;;;;;3.90;1.35;;;10.60;99.90;;;;;;4833268;29;20057;-94
2023/02/19 12:06:45;;;;;;;5.35;1.42;;;10.60;99.90;;;;;;4820860;29;20084;-94
2023/02/19 12:09:30;;;;;;;3.65;1.20;;;10.70;99.90;;;;;;4817532;29;20038;-93
2023/02/19 12:12:05;;;;;;;4.35;1.48;;;10.70;99.90;;;;;;4812777;29;20061;-91
2023/02/19 12:15:04;;;;;;;5.00;1.50;;;10.80;99.90;;;;;;4826485;29;20115;-90
2023/02/19 12:17:51;;;;;;;5.88;1.40;;;10.90;99.90;;;;;;4825864;29;20072;-94
2023/02/19 12:20:23;;;;;;;5.45;1.40;;;10.90;99.90;;;;;;4810086;29;20069;-93
2023/02/19 12:23:10;;;;;;;3.97;1.27;;;10.90;99.90;;;;;;4824680;29;20061;-92
2023/02/19 12:25:53;;;;;;;3.70;1.20;;;10.90;99.90;;;;;;4825917;29;20046;-91
2023/02/19 12:28:38;;;;;;;;;;;10.90;99.90;;;;;;4825659;29;20496;-91
2023/02/19 12:31:03;;;;;;;;;;;10.90;99.90;;;;;;4824037;29;19925;-89
2023/02/19 12:33:50;;;;;;;3.45;1.10;;;10.90;99.90;;;;;;4823484;29;19950;-89
2023/02/19 12:36:45;;;;;;;3.13;1.30;;;10.90;99.90;;;;;;4824742;29;20042;-90
2023/02/19 12:39:35;;;;;;;4.32;1.27;;;10.90;99.90;;;;;;4785297;29;20551;-90
2023/02/19 12:42:14;;;;;;;4.90;1.33;;;10.90;99.90;;;;;;4824937;29;20054;-90
2023/02/19 12:44:50;;;;;;;4.55;1.40;;;10.80;99.90;;;;;;4825181;29;20054;-90
2023/02/19 12:47:20;;;;;;;4.97;1.40;;;10.90;99.90;;;;;;4824070;29;20054;-90
2023/02/19 12:50:15;;;;;;;4.22;1.20;;;10.90;99.90;;;;;;4807960;29;20046;-88
2023/02/19 12:52:44;;;;;;;2.55;1.05;;;11.00;99.90;;;;;;4817661;29;20065;-91
2023/02/19 12:55:28;;;;;;;4.38;0.93;;;11.00;99.90;;;;;;4839505;29;20050;-94
2023/02/19 12:58:06;;;;;;;4.35;1.20;;;11.00;99.90;;;;;;4808886;29;20057;-91
2023/02/19 13:04:16;;;;;;;4.20;1.30;;;11.00;99.90;;;;;;4823817;29;20061;-91
2023/02/19 13:07:10;;;;;;;2.97;1.00;;;11.00;99.90;;;;;;4807514;29;20060;-91
2023/02/19 13:09:44;;;;;;;3.50;0.90;;;11.00;99.90;;;;;;4802820;29;20504;-92
2023/02/19 13:12:38;;;;;;;3.67;1.13;;;11.10;99.90;;;;;;4807646;29;20050;-92
2023/02/19 13:18:40;;;;;;;6.20;1.67;;;11.10;99.90;;;;;;4872482;23;20471;-88
2023/02/19 13:25:05;;;;;;;3.70;1.70;;;11.10;99.90;;;;;;4928426;24;20065;-94
2023/02/19 13:28:11;;;;;;;3.83;1.20;;;11.10;99.90;;;;;;4861804;29;20049;-93
2023/02/19 13:31:21;;;;;;;6.30;1.10;;;11.00;99.90;;;;;;4861437;29;20045;-90
2023/02/19 13:34:14;;;;;;;4.25;1.08;;;10.90;99.90;;;;;;4859133;29;20049;-91
2023/02/19 13:36:40;;;;;;;3.15;1.10;;;10.90;99.90;;;;;;4863700;29;20045;-91
2023/02/19 13:39:26;;;;;;;5.75;1.35;;;10.90;99.90;;;;;;4864859;29;20046;-91
2023/02/19 13:42:31;;;;;;;6.70;1.80;;;10.90;99.90;;;;;;4863121;29;20053;-91
2023/02/19 13:44:58;;;;;;;5.97;1.40;;;10.90;99.90;;;;;;4863707;29;20136;-91
2023/02/19 13:47:49;;;;;;;3.50;0.98;;;10.90;99.90;;;;;;4864361;29;20063;-91
2023/02/19 13:50:52;;;;;;;4.25;1.02;;;10.90;99.90;;;;;;4863404;29;20144;-90